Cedar East Bethel, Minnesota
Current Conditions -  °F | °C
As of 12:45 PM on Friday 31 Oct 2014 (Local Time) from KANE Reporting Station
Clear Clear  
Wind Chill: 29°   Ceiling: Unl
Heat Index: 37°   Visibility: 10mi
Dew Point: 19°   Wind: 14mph
Humidity: 48%   Direction: 340°NNW
Pressure: 30.55"   Gusts: 21mph
Location:  45.3385°N, 93.2617°W
Report Text: KANE 311745Z 34012G18KT 10SM SKC 03/M07 A3055
Loading
Personal Weather Stations






























Interactive Weather Map
Tropical Storm Tracking
New forecast layout! Learn more

10-Day Weather Forecast

Advertisements
Track Severe Weather on mobile